sensor_id;sensor_type;location;lat;lon;timestamp;pressure;altitude;pressure_sealevel;temperature;humidity
54465;BME280;40374;49.480;20.016;2023-04-05T00:00:45;95229.97;;;-1.69;100.00
54465;BME280;40374;49.480;20.016;2023-04-05T00:03:14;95233.06;;;-1.58;100.00
54465;BME280;40374;49.480;20.016;2023-04-05T00:05:45;95226.78;;;-1.57;100.00
54465;BME280;40374;49.480;20.016;2023-04-05T00:08:12;95221.47;;;-1.64;100.00
54465;BME280;40374;49.480;20.016;2023-04-05T00:10:49;95217.06;;;-1.57;100.00
54465;BME280;40374;49.480;20.016;2023-04-05T00:13:17;95217.69;;;-1.48;100.00
54465;BME280;40374;49.480;20.016;2023-04-05T00:15:45;95222.78;;;-1.47;100.00
54465;BME280;40374;49.480;20.016;2023-04-05T00:18:13;95212.22;;;-1.47;100.00
54465;BME280;40374;49.480;20.016;2023-04-05T00:20:50;95211.59;;;-1.49;100.00
54465;BME280;40374;49.480;20.016;2023-04-05T00:23:18;95202.47;;;-1.46;100.00
54465;BME280;40374;49.480;20.016;2023-04-05T00:25:47;95213.63;;;-1.51;100.00
54465;BME280;40374;49.480;20.016;2023-04-05T00:28:15;95205.50;;;-1.49;100.00
54465;BME280;40374;49.480;20.016;2023-04-05T00:30:42;95214.44;;;-1.50;100.00
54465;BME280;40374;49.480;20.016;2023-04-05T00:33:13;95209.38;;;-1.45;100.00
54465;BME280;40374;49.480;20.016;2023-04-05T00:35:40;95203.25;;;-1.59;100.00
54465;BME280;40374;49.480;20.016;2023-04-05T00:38:07;95198.56;;;-1.64;100.00
54465;BME280;40374;49.480;20.016;2023-04-05T00:40:35;95201.41;;;-1.65;100.00
54465;BME280;40374;49.480;20.016;2023-04-05T00:43:03;95199.16;;;-1.68;100.00
54465;BME280;40374;49.480;20.016;2023-04-05T00:45:31;95200.19;;;-1.63;100.00
54465;BME280;40374;49.480;20.016;2023-04-05T00:47:59;95200.00;;;-1.61;100.00
54465;BME280;40374;49.480;20.016;2023-04-05T00:50:27;95199.56;;;-1.65;100.00
54465;BME280;40374;49.480;20.016;2023-04-05T00:52:58;95190.22;;;-1.74;100.00
54465;BME280;40374;49.480;20.016;2023-04-05T00:55:25;95205.88;;;-1.66;100.00
54465;BME280;40374;49.480;20.016;2023-04-05T00:57:54;95206.25;;;-1.69;100.00
54465;BME280;40374;49.480;20.016;2023-04-05T01:00:21;95199.75;;;-1.73;100.00
54465;BME280;40374;49.480;20.016;2023-04-05T01:02:56;95207.72;;;-1.59;100.00
54465;BME280;40374;49.480;20.016;2023-04-05T01:05:39;95200.81;;;-1.60;100.00
54465;BME280;40374;49.480;20.016;2023-04-05T01:08:33;95200.59;;;-1.66;100.00
54465;BME280;40374;49.480;20.016;2023-04-05T01:11:04;95197.53;;;-1.69;100.00
54465;BME280;40374;49.480;20.016;2023-04-05T01:13:33;95199.94;;;-1.74;100.00
54465;BME280;40374;49.480;20.016;2023-04-05T01:16:00;95202.78;;;-1.76;100.00
54465;BME280;40374;49.480;20.016;2023-04-05T01:18:28;95206.22;;;-1.75;100.00
54465;BME280;40374;49.480;20.016;2023-04-05T01:21:20;95194.28;;;-1.65;100.00
54465;BME280;40374;49.480;20.016;2023-04-05T01:32:36;95192.06;;;-1.68;100.00
54465;BME280;40374;49.480;20.016;2023-04-05T01:37:41;95185.41;;;-1.57;100.00
54465;BME280;40374;49.480;20.016;2023-04-05T01:40:11;95190.59;;;-1.77;100.00
54465;BME280;40374;49.480;20.016;2023-04-05T01:42:38;95188.75;;;-1.83;100.00
54465;BME280;40374;49.480;20.016;2023-04-05T01:45:08;95194.88;;;-1.76;100.00
54465;BME280;40374;49.480;20.016;2023-04-05T01:47:35;95184.94;;;-1.80;100.00
54465;BME280;40374;49.480;20.016;2023-04-05T01:50:03;95183.31;;;-1.75;100.00
54465;BME280;40374;49.480;20.016;2023-04-05T01:52:31;95193.03;;;-1.75;100.00
54465;BME280;40374;49.480;20.016;2023-04-05T01:54:58;95183.72;;;-1.78;100.00
54465;BME280;40374;49.480;20.016;2023-04-05T01:57:26;95186.16;;;-1.76;100.00
54465;BME280;40374;49.480;20.016;2023-04-05T01:59:54;95168.88;;;-1.79;100.00
54465;BME280;40374;49.480;20.016;2023-04-05T02:02:21;95182.31;;;-1.74;100.00
54465;BME280;40374;49.480;20.016;2023-04-05T02:04:49;95181.28;;;-1.73;100.00
54465;BME280;40374;49.480;20.016;2023-04-05T02:07:16;95176.81;;;-1.72;100.00
54465;BME280;40374;49.480;20.016;2023-04-05T02:09:44;95178.25;;;-1.76;100.00
54465;BME280;40374;49.480;20.016;2023-04-05T02:12:11;95176.41;;;-1.76;100.00
54465;BME280;40374;49.480;20.016;2023-04-05T02:14:39;95174.78;;;-1.77;100.00
54465;BME280;40374;49.480;20.016;2023-04-05T02:17:06;95177.81;;;-1.80;100.00
54465;BME280;40374;49.480;20.016;2023-04-05T02:19:34;95180.06;;;-1.77;100.00
54465;BME280;40374;49.480;20.016;2023-04-05T02:22:07;95177.84;;;-1.73;100.00
54465;BME280;40374;49.480;20.016;2023-04-05T02:24:35;95168.88;;;-1.86;100.00
54465;BME280;40374;49.480;20.016;2023-04-05T02:27:03;95172.56;;;-1.80;100.00
54465;BME280;40374;49.480;20.016;2023-04-05T02:29:31;95178.63;;;-1.79;100.00
54465;BME280;40374;49.480;20.016;2023-04-05T02:31:58;95176.59;;;-1.84;100.00
54465;BME280;40374;49.480;20.016;2023-04-05T02:34:26;95176.13;;;-1.94;100.00
54465;BME280;40374;49.480;20.016;2023-04-05T02:36:57;95175.34;;;-1.95;100.00
54465;BME280;40374;49.480;20.016;2023-04-05T02:39:25;95163.75;;;-2.00;100.00
54465;BME280;40374;49.480;20.016;2023-04-05T02:41:52;95174.75;;;-1.90;100.00
54465;BME280;40374;49.480;20.016;2023-04-05T02:44:20;95173.09;;;-1.91;100.00
54465;BME280;40374;49.480;20.016;2023-04-05T02:46:51;95147.50;;;-2.04;100.00
54465;BME280;40374;49.480;20.016;2023-04-05T02:49:24;95167.63;;;-1.90;100.00
54465;BME280;40374;49.480;20.016;2023-04-05T02:51:52;95167.44;;;-1.88;100.00
54465;BME280;40374;49.480;20.016;2023-04-05T02:54:22;95170.09;;;-1.88;100.00
54465;BME280;40374;49.480;20.016;2023-04-05T02:56:51;95166.22;;;-1.86;100.00
54465;BME280;40374;49.480;20.016;2023-04-05T02:59:24;95161.41;;;-1.75;100.00
54465;BME280;40374;49.480;20.016;2023-04-05T03:01:52;95180.03;;;-1.84;100.00
54465;BME280;40374;49.480;20.016;2023-04-05T03:04:24;95170.88;;;-1.88;100.00
54465;BME280;40374;49.480;20.016;2023-04-05T03:07:02;95173.56;;;-1.74;100.00
54465;BME280;40374;49.480;20.016;2023-04-05T03:09:34;95167.19;;;-2.00;100.00
54465;BME280;40374;49.480;20.016;2023-04-05T03:12:07;95173.28;;;-1.99;100.00
54465;BME280;40374;49.480;20.016;2023-04-05T03:14:39;95166.78;;;-2.03;100.00
54465;BME280;40374;49.480;20.016;2023-04-05T03:17:08;95168.41;;;-2.02;100.00
54465;BME280;40374;49.480;20.016;2023-04-05T03:19:40;95153.34;;;-2.15;100.00
54465;BME280;40374;49.480;20.016;2023-04-05T03:22:14;95169.59;;;-2.05;100.00
54465;BME280;40374;49.480;20.016;2023-04-05T03:24:42;95167.75;;;-2.11;100.00
54465;BME280;40374;49.480;20.016;2023-04-05T03:27:12;95171.44;;;-2.06;100.00
54465;BME280;40374;49.480;20.016;2023-04-05T03:29:55;95172.25;;;-2.05;100.00
54465;BME280;40374;49.480;20.016;2023-04-05T03:32:23;95170.56;;;-2.19;100.00
54465;BME280;40374;49.480;20.016;2023-04-05T03:34:59;95171.09;;;-2.31;100.00
54465;BME280;40374;49.480;20.016;2023-04-05T03:37:26;95171.34;;;-2.19;100.00
54465;BME280;40374;49.480;20.016;2023-04-05T03:40:01;95187.16;;;-2.19;100.00
54465;BME280;40374;49.480;20.016;2023-04-05T03:42:29;95183.91;;;-2.21;100.00
54465;BME280;40374;49.480;20.016;2023-04-05T03:44:56;95179.81;;;-2.30;100.00
54465;BME280;40374;49.480;20.016;2023-04-05T03:47:23;95170.06;;;-2.36;100.00
54465;BME280;40374;49.480;20.016;2023-04-05T03:49:52;95185.09;;;-2.30;100.00
54465;BME280;40374;49.480;20.016;2023-04-05T03:52:19;95182.47;;;-2.30;100.00
54465;BME280;40374;49.480;20.016;2023-04-05T03:54:47;95181.06;;;-2.26;100.00
54465;BME280;40374;49.480;20.016;2023-04-05T03:57:19;95178.25;;;-2.25;100.00
54465;BME280;40374;49.480;20.016;2023-04-05T03:59:49;95180.44;;;-2.28;100.00
54465;BME280;40374;49.480;20.016;2023-04-05T04:02:17;95179.81;;;-2.30;100.00
54465;BME280;40374;49.480;20.016;2023-04-05T04:04:44;95177.63;;;-2.27;100.00
54465;BME280;40374;49.480;20.016;2023-04-05T04:07:14;95188.16;;;-2.27;100.00
54465;BME280;40374;49.480;20.016;2023-04-05T04:09:42;95182.06;;;-2.27;96.33
54465;BME280;40374;49.480;20.016;2023-04-05T04:12:10;95177.81;;;-2.28;85.49
54465;BME280;40374;49.480;20.016;2023-04-05T04:14:46;95187.16;;;-2.19;87.28
54465;BME280;40374;49.480;20.016;2023-04-05T04:17:36;95184.53;;;-2.19;79.18
54465;BME280;40374;49.480;20.016;2023-04-05T04:20:23;95174.25;;;-2.14;81.42
54465;BME280;40374;49.480;20.016;2023-04-05T04:22:57;95186.84;;;-2.02;83.84
54465;BME280;40374;49.480;20.016;2023-04-05T04:25:50;95179.53;;;-2.07;97.48
54465;BME280;40374;49.480;20.016;2023-04-05T04:28:33;95186.88;;;-1.96;100.00
54465;BME280;40374;49.480;20.016;2023-04-05T04:31:33;95192.91;;;-2.02;100.00
54465;BME280;40374;49.480;20.016;2023-04-05T04:34:23;95192.69;;;-2.14;100.00
54465;BME280;40374;49.480;20.016;2023-04-05T04:37:08;95187.16;;;-2.19;100.00
54465;BME280;40374;49.480;20.016;2023-04-05T04:40:22;95185.59;;;-2.07;100.00
54465;BME280;40374;49.480;20.016;2023-04-05T04:44:14;95197.34;;;-2.16;100.00
54465;BME280;40374;49.480;20.016;2023-04-05T04:47:11;95199.13;;;-2.16;100.00
54465;BME280;40374;49.480;20.016;2023-04-05T04:50:03;95197.34;;;-2.16;100.00
54465;BME280;40374;49.480;20.016;2023-04-05T04:52:32;95197.00;;;-1.99;100.00
54465;BME280;40374;49.480;20.016;2023-04-05T04:55:00;95202.81;;;-2.11;100.00
54465;BME280;40374;49.480;20.016;2023-04-05T04:57:28;95201.81;;;-2.10;100.00
54465;BME280;40374;49.480;20.016;2023-04-05T04:59:56;95192.53;;;-2.06;100.00
54465;BME280;40374;49.480;20.016;2023-04-05T05:02:24;95198.22;;;-1.95;100.00
54465;BME280;40374;49.480;20.016;2023-04-05T05:04:53;95197.63;;;-1.97;100.00
54465;BME280;40374;49.480;20.016;2023-04-05T05:07:23;95191.75;;;-1.99;100.00
54465;BME280;40374;49.480;20.016;2023-04-05T05:09:50;95198.22;;;-1.95;100.00
54465;BME280;40374;49.480;20.016;2023-04-05T05:12:20;95207.59;;;-1.86;100.00
54465;BME280;40374;49.480;20.016;2023-04-05T05:14:48;95211.25;;;-1.87;100.00
54465;BME280;40374;49.480;20.016;2023-04-05T05:17:15;95196.81;;;-1.91;100.00
54465;BME280;40374;49.480;20.016;2023-04-05T05:19:43;95206.03;;;-1.80;100.00
54465;BME280;40374;49.480;20.016;2023-04-05T05:22:11;95196.47;;;-1.81;100.00
54465;BME280;40374;49.480;20.016;2023-04-05T05:24:39;95198.09;;;-1.80;100.00
54465;BME280;40374;49.480;20.016;2023-04-05T05:27:06;95209.50;;;-1.67;100.00
54465;BME280;40374;49.480;20.016;2023-04-05T05:29:33;95195.72;;;-1.62;100.00
54465;BME280;40374;49.480;20.016;2023-04-05T05:32:01;95202.06;;;-1.43;100.00
54465;BME280;40374;49.480;20.016;2023-04-05T05:34:28;95189.09;;;-1.45;100.00
54465;BME280;40374;49.480;20.016;2023-04-05T05:36:57;95189.06;;;-1.51;100.00
54465;BME280;40374;49.480;20.016;2023-04-05T05:39:25;95187.81;;;-1.62;100.00
54465;BME280;40374;49.480;20.016;2023-04-05T05:41:52;95195.69;;;-1.69;100.00
54465;BME280;40374;49.480;20.016;2023-04-05T05:44:19;95192.63;;;-1.72;99.46
54465;BME280;40374;49.480;20.016;2023-04-05T05:46:47;95197.09;;;-1.79;99.25
54465;BME280;40374;49.480;20.016;2023-04-05T05:49:15;95198.09;;;-1.80;100.00
54465;BME280;40374;49.480;20.016;2023-04-05T05:51:42;95187.09;;;-1.97;100.00
54465;BME280;40374;49.480;20.016;2023-04-05T05:54:10;95191.94;;;-1.94;100.00
54465;BME280;40374;49.480;20.016;2023-04-05T05:56:37;95197.88;;;-1.86;100.00
54465;BME280;40374;49.480;20.016;2023-04-05T05:59:05;95195.50;;;-1.74;100.00
54465;BME280;40374;49.480;20.016;2023-04-05T06:01:33;95194.28;;;-1.71;100.00
54465;BME280;40374;49.480;20.016;2023-04-05T06:04:04;95193.31;;;-1.64;100.00
54465;BME280;40374;49.480;20.016;2023-04-05T06:06:31;95187.63;;;-1.54;100.00
54465;BME280;40374;49.480;20.016;2023-04-05T06:09:02;95187.44;;;-1.46;98.13
54465;BME280;40374;49.480;20.016;2023-04-05T06:11:29;95170.81;;;-1.46;89.49
54465;BME280;40374;49.480;20.016;2023-04-05T06:13:57;95195.44;;;-1.26;76.53
54465;BME280;40374;49.480;20.016;2023-04-05T06:16:24;95187.31;;;-1.17;80.57
54465;BME280;40374;49.480;20.016;2023-04-05T06:18:52;95186.91;;;-1.14;67.24
54465;BME280;40374;49.480;20.016;2023-04-05T06:21:24;95175.94;;;-1.31;66.66
54465;BME280;40374;49.480;20.016;2023-04-05T06:23:53;95179.97;;;-1.22;72.73
54465;BME280;40374;49.480;20.016;2023-04-05T06:26:21;95181.06;;;-0.96;74.92
54465;BME280;40374;49.480;20.016;2023-04-05T06:28:53;95178.00;;;-0.87;72.18
54465;BME280;40374;49.480;20.016;2023-04-05T06:31:31;95187.13;;;-0.56;68.76
54465;BME280;40374;49.480;20.016;2023-04-05T06:33:59;95181.66;;;-0.54;71.34
54465;BME280;40374;49.480;20.016;2023-04-05T06:36:29;95190.16;;;-0.32;65.75
54465;BME280;40374;49.480;20.016;2023-04-05T06:38:58;95196.44;;;-0.40;65.77
54465;BME280;40374;49.480;20.016;2023-04-05T06:41:25;95181.81;;;-0.36;66.19
54465;BME280;40374;49.480;20.016;2023-04-05T06:43:56;95186.47;;;-0.18;65.81
54465;BME280;40374;49.480;20.016;2023-04-05T06:46:23;95198.44;;;-0.09;63.41
54465;BME280;40374;49.480;20.016;2023-04-05T06:48:51;95188.63;;;0.05;65.65
54465;BME280;40374;49.480;20.016;2023-04-05T06:51:22;95189.81;;;0.16;66.86
54465;BME280;40374;49.480;20.016;2023-04-05T06:53:49;95190.19;;;0.26;65.70
54465;BME280;40374;49.480;20.016;2023-04-05T06:56:17;95175.94;;;0.34;62.89
54465;BME280;40374;49.480;20.016;2023-04-05T06:58:44;95167.50;;;0.44;62.89
54465;BME280;40374;49.480;20.016;2023-04-05T07:01:12;95178.56;;;0.72;64.36
54465;BME280;40374;49.480;20.016;2023-04-05T07:03:39;95167.13;;;0.78;63.06
54465;BME280;40374;49.480;20.016;2023-04-05T07:06:07;95165.25;;;0.86;61.27
54465;BME280;40374;49.480;20.016;2023-04-05T07:08:36;95174.72;;;1.00;61.43
54465;BME280;40374;49.480;20.016;2023-04-05T07:11:03;95179.00;;;1.01;61.08
54465;BME280;40374;49.480;20.016;2023-04-05T07:13:31;95178.53;;;0.79;57.69
54465;BME280;40374;49.480;20.016;2023-04-05T07:16:00;95164.00;;;0.56;55.39
54465;BME280;40374;49.480;20.016;2023-04-05T07:18:28;95176.16;;;0.64;58.82
54465;BME280;40374;49.480;20.016;2023-04-05T07:20:57;95177.97;;;1.02;59.83
54465;BME280;40374;49.480;20.016;2023-04-05T07:23:29;95164.94;;;1.26;59.44
54465;BME280;40374;49.480;20.016;2023-04-05T07:26:00;95170.50;;;1.68;57.98
54465;BME280;40374;49.480;20.016;2023-04-05T07:28:33;95166.59;;;1.89;55.59
54465;BME280;40374;49.480;20.016;2023-04-05T07:31:02;95171.84;;;1.77;53.57
54465;BME280;40374;49.480;20.016;2023-04-05T07:33:30;95168.69;;;1.43;54.74
54465;BME280;40374;49.480;20.016;2023-04-05T07:35:58;95163.88;;;1.33;53.95
54465;BME280;40374;49.480;20.016;2023-04-05T07:38:26;95170.31;;;1.44;56.06
54465;BME280;40374;49.480;20.016;2023-04-05T07:40:55;95157.53;;;1.34;54.69
54465;BME280;40374;49.480;20.016;2023-04-05T07:43:23;95159.38;;;1.34;57.93
54465;BME280;40374;49.480;20.016;2023-04-05T07:45:59;95169.66;;;1.24;54.46
54465;BME280;40374;49.480;20.016;2023-04-05T07:48:27;95166.13;;;1.30;55.02
54465;BME280;40374;49.480;20.016;2023-04-05T07:51:05;95162.47;;;1.56;56.19
54465;BME280;40374;49.480;20.016;2023-04-05T07:53:35;95157.84;;;1.45;54.37
54465;BME280;40374;49.480;20.016;2023-04-05T07:56:11;95162.84;;;1.34;55.18
54465;BME280;40374;49.480;20.016;2023-04-05T07:58:40;95154.19;;;1.20;54.18
54465;BME280;40374;49.480;20.016;2023-04-05T08:01:09;95150.41;;;1.35;54.63
54465;BME280;40374;49.480;20.016;2023-04-05T08:03:38;95155.94;;;1.77;56.79
54465;BME280;40374;49.480;20.016;2023-04-05T08:06:14;95161.75;;;2.22;56.26
54465;BME280;40374;49.480;20.016;2023-04-05T08:08:45;95155.44;;;2.54;55.25
54465;BME280;40374;49.480;20.016;2023-04-05T08:11:13;95158.13;;;2.96;54.25
54465;BME280;40374;49.480;20.016;2023-04-05T08:13:40;95151.97;;;3.25;53.92
54465;BME280;40374;49.480;20.016;2023-04-05T08:16:09;95152.91;;;2.89;50.32
54465;BME280;40374;49.480;20.016;2023-04-05T08:18:37;95155.63;;;2.71;51.94
54465;BME280;40374;49.480;20.016;2023-04-05T08:21:05;95152.06;;;2.47;49.39
54465;BME280;40374;49.480;20.016;2023-04-05T08:23:32;95153.34;;;2.44;51.53
54465;BME280;40374;49.480;20.016;2023-04-05T08:26:00;95144.19;;;2.70;52.33
54465;BME280;40374;49.480;20.016;2023-04-05T08:28:28;95148.06;;;2.98;52.51
54465;BME280;40374;49.480;20.016;2023-04-05T08:30:55;95146.41;;;3.27;52.21
54465;BME280;40374;49.480;20.016;2023-04-05T08:33:24;95150.94;;;3.62;52.61
54465;BME280;40374;49.480;20.016;2023-04-05T08:35:57;95150.13;;;3.73;49.54
54465;BME280;40374;49.480;20.016;2023-04-05T08:38:29;95155.41;;;3.97;49.98
54465;BME280;40374;49.480;20.016;2023-04-05T08:41:06;95142.00;;;4.56;47.72
54465;BME280;40374;49.480;20.016;2023-04-05T08:44:10;95134.47;;;4.81;45.74
54465;BME280;40374;49.480;20.016;2023-04-05T08:46:37;95140.97;;;5.02;46.21
54465;BME280;40374;49.480;20.016;2023-04-05T08:49:06;95138.72;;;5.11;46.91
54465;BME280;40374;49.480;20.016;2023-04-05T08:51:37;95136.28;;;5.26;46.46
54465;BME280;40374;49.480;20.016;2023-04-05T08:54:06;95128.50;;;4.91;46.41
54465;BME280;40374;49.480;20.016;2023-04-05T08:56:34;95135.63;;;4.85;46.54
54465;BME280;40374;49.480;20.016;2023-04-05T08:59:03;95142.66;;;4.63;47.01
54465;BME280;40374;49.480;20.016;2023-04-05T09:01:37;95119.56;;;4.40;46.57
54465;BME280;40374;49.480;20.016;2023-04-05T09:04:18;95140.22;;;4.61;47.68
54465;BME280;40374;49.480;20.016;2023-04-05T09:06:48;95125.28;;;5.06;46.68
54465;BME280;40374;49.480;20.016;2023-04-05T09:09:17;95133.75;;;6.04;47.04
54465;BME280;40374;49.480;20.016;2023-04-05T09:11:47;95128.09;;;7.21;46.56
54465;BME280;40374;49.480;20.016;2023-04-05T09:14:15;95129.81;;;8.18;40.59
54465;BME280;40374;49.480;20.016;2023-04-05T09:16:43;95113.97;;;8.69;40.13
54465;BME280;40374;49.480;20.016;2023-04-05T09:19:10;95125.50;;;8.64;40.59
54465;BME280;40374;49.480;20.016;2023-04-05T09:22:01;95120.19;;;8.90;39.09
54465;BME280;40374;49.480;20.016;2023-04-05T09:24:39;95113.28;;;9.61;39.66
54465;BME280;40374;49.480;20.016;2023-04-05T09:27:17;95116.84;;;10.52;40.26
54465;BME280;40374;49.480;20.016;2023-04-05T09:29:54;95106.44;;;11.34;38.99
54465;BME280;40374;49.480;20.016;2023-04-05T09:32:25;95078.53;;;11.89;36.96
54465;BME280;40374;49.480;20.016;2023-04-05T09:34:57;95101.47;;;12.58;37.54
54465;BME280;40374;49.480;20.016;2023-04-05T09:37:30;95098.69;;;13.07;37.02
54465;BME280;40374;49.480;20.016;2023-04-05T09:40:02;95097.75;;;13.54;36.24
54465;BME280;40374;49.480;20.016;2023-04-05T09:42:41;95089.13;;;13.99;36.26
54465;BME280;40374;49.480;20.016;2023-04-05T09:45:10;95093.00;;;14.53;36.54
54465;BME280;40374;49.480;20.016;2023-04-05T09:47:56;95090.38;;;14.20;35.56
54465;BME280;40374;49.480;20.016;2023-04-05T09:50:24;95098.81;;;13.53;34.34
54465;BME280;40374;49.480;20.016;2023-04-05T09:53:10;95103.66;;;12.56;35.10
54465;BME280;40374;49.480;20.016;2023-04-05T09:55:44;95109.00;;;11.50;36.35
54465;BME280;40374;49.480;20.016;2023-04-05T09:58:12;95097.34;;;10.81;36.52
54465;BME280;40374;49.480;20.016;2023-04-05T10:00:49;95099.59;;;9.72;37.16
54465;BME280;40374;49.480;20.016;2023-04-05T10:03:45;95114.59;;;8.97;38.62
54465;BME280;40374;49.480;20.016;2023-04-05T10:06:17;95111.25;;;8.48;39.29
54465;BME280;40374;49.480;20.016;2023-04-05T10:08:49;95112.41;;;8.20;39.72
54465;BME280;40374;49.480;20.016;2023-04-05T10:11:21;95111.25;;;8.01;40.39
54465;BME280;40374;49.480;20.016;2023-04-05T10:13:50;95112.47;;;7.78;41.55
54465;BME280;40374;49.480;20.016;2023-04-05T10:16:20;95106.31;;;7.40;41.95
54465;BME280;40374;49.480;20.016;2023-04-05T10:18:51;95104.09;;;6.99;42.21
54465;BME280;40374;49.480;20.016;2023-04-05T10:21:27;95100.38;;;6.78;41.97
54465;BME280;40374;49.480;20.016;2023-04-05T10:27:16;95109.25;;;8.28;42.35
54465;BME280;40374;49.480;20.016;2023-04-05T10:29:51;95100.13;;;9.59;39.48
54465;BME280;40374;49.480;20.016;2023-04-05T10:32:29;95089.09;;;10.67;36.96
54465;BME280;40374;49.480;20.016;2023-04-05T10:35:09;95090.00;;;11.65;36.69
54465;BME280;40374;49.480;20.016;2023-04-05T10:40:48;95083.28;;;12.88;35.39
54465;BME280;40374;49.480;20.016;2023-04-05T10:43:24;95063.06;;;13.24;34.21
54465;BME280;40374;49.480;20.016;2023-04-05T10:45:53;95075.97;;;13.08;32.04
54465;BME280;40374;49.480;20.016;2023-04-05T10:51:00;95080.28;;;12.71;36.64
54465;BME280;40374;49.480;20.016;2023-04-05T10:53:30;95075.53;;;12.82;36.73
54465;BME280;40374;49.480;20.016;2023-04-05T10:56:00;95075.09;;;12.31;35.50
54465;BME280;40374;49.480;20.016;2023-04-05T10:58:28;95078.81;;;11.82;35.18
54465;BME280;40374;49.480;20.016;2023-04-05T11:00:57;95087.47;;;11.15;35.54
54465;BME280;40374;49.480;20.016;2023-04-05T11:06:31;95088.81;;;9.88;36.47
54465;BME280;40374;49.480;20.016;2023-04-05T11:08:59;95089.94;;;9.20;37.88
54465;BME280;40374;49.480;20.016;2023-04-05T11:11:37;95081.53;;;8.65;38.81
54465;BME280;40374;49.480;20.016;2023-04-05T11:14:23;95094.50;;;8.31;39.27
54465;BME280;40374;49.480;20.016;2023-04-05T11:16:59;95085.53;;;8.58;41.79
54465;BME280;40374;49.480;20.016;2023-04-05T11:22:24;95086.69;;;9.64;39.57
54465;BME280;40374;49.480;20.016;2023-04-05T11:24:57;95091.53;;;9.52;39.61
54465;BME280;40374;49.480;20.016;2023-04-05T11:27:25;95094.41;;;9.96;40.54
54465;BME280;40374;49.480;20.016;2023-04-05T11:29:55;95072.00;;;10.42;37.22
54465;BME280;40374;49.480;20.016;2023-04-05T11:32:37;95084.25;;;10.64;38.49
54465;BME280;40374;49.480;20.016;2023-04-05T11:35:16;95082.41;;;11.09;39.05
54465;BME280;40374;49.480;20.016;2023-04-05T11:37:53;95084.75;;;11.55;38.53
54465;BME280;40374;49.480;20.016;2023-04-05T11:40:32;95088.34;;;11.40;37.46
54465;BME280;40374;49.480;20.016;2023-04-05T11:45:29;95075.72;;;11.01;36.32
54465;BME280;40374;49.480;20.016;2023-04-05T11:48:10;95082.53;;;10.23;37.91
54465;BME280;40374;49.480;20.016;2023-04-05T11:50:42;95083.47;;;9.62;39.58
54465;BME280;40374;49.480;20.016;2023-04-05T11:53:14;95074.88;;;9.19;40.18
54465;BME280;40374;49.480;20.016;2023-04-05T11:55:45;95087.47;;;8.88;40.59
54465;BME280;40374;49.480;20.016;2023-04-05T11:58:23;95095.16;;;8.53;40.90
54465;BME280;40374;49.480;20.016;2023-04-05T12:00:59;95096.69;;;8.34;40.94
54465;BME280;40374;49.480;20.016;2023-04-05T12:03:28;95091.47;;;8.07;41.40
54465;BME280;40374;49.480;20.016;2023-04-05T12:05:58;95099.69;;;7.95;41.28
54465;BME280;40374;49.480;20.016;2023-04-05T12:08:42;95100.41;;;7.80;42.18
54465;BME280;40374;49.480;20.016;2023-04-05T12:11:23;95091.28;;;8.29;42.43
54465;BME280;40374;49.480;20.016;2023-04-05T12:13:56;95083.22;;;9.07;41.41
54465;BME280;40374;49.480;20.016;2023-04-05T12:16:26;95072.34;;;10.10;41.47
54465;BME280;40374;49.480;20.016;2023-04-05T12:18:55;95079.09;;;11.17;39.41
54465;BME280;40374;49.480;20.016;2023-04-05T12:21:23;95083.72;;;11.46;37.40
54465;BME280;40374;49.480;20.016;2023-04-05T12:23:52;95070.63;;;11.34;37.04
54465;BME280;40374;49.480;20.016;2023-04-05T12:26:20;95077.28;;;11.07;37.65
54465;BME280;40374;49.480;20.016;2023-04-05T12:28:52;95082.56;;;10.78;36.78
54465;BME280;40374;49.480;20.016;2023-04-05T12:31:44;95085.97;;;10.94;36.63
54465;BME280;40374;49.480;20.016;2023-04-05T12:34:13;95088.13;;;10.97;37.47
54465;BME280;40374;49.480;20.016;2023-04-05T12:36:44;95088.56;;;11.78;34.40
54465;BME280;40374;49.480;20.016;2023-04-05T12:39:15;95079.78;;;12.69;36.20
54465;BME280;40374;49.480;20.016;2023-04-05T12:41:55;95067.63;;;13.61;34.11
54465;BME280;40374;49.480;20.016;2023-04-05T12:44:29;95065.69;;;14.08;33.88
54465;BME280;40374;49.480;20.016;2023-04-05T12:47:00;95065.72;;;14.50;34.66
54465;BME280;40374;49.480;20.016;2023-04-05T12:49:38;95064.25;;;15.08;33.01
54465;BME280;40374;49.480;20.016;2023-04-05T12:52:06;95069.81;;;15.48;33.37
54465;BME280;40374;49.480;20.016;2023-04-05T12:54:34;95065.91;;;14.81;32.88
54465;BME280;40374;49.480;20.016;2023-04-05T12:57:02;95069.94;;;13.35;33.28
54465;BME280;40374;49.480;20.016;2023-04-05T12:59:37;95078.81;;;11.82;33.76
54465;BME280;40374;49.480;20.016;2023-04-05T13:02:05;95060.09;;;10.59;36.66
54465;BME280;40374;49.480;20.016;2023-04-05T13:04:33;95074.25;;;9.99;37.79
54465;BME280;40374;49.480;20.016;2023-04-05T13:07:01;95073.00;;;9.50;38.49
54465;BME280;40374;49.480;20.016;2023-04-05T13:09:28;95078.09;;;8.90;39.27
54465;BME280;40374;49.480;20.016;2023-04-05T13:11:58;95084.72;;;8.57;39.49
54465;BME280;40374;49.480;20.016;2023-04-05T13:14:25;95085.63;;;8.20;39.11
54465;BME280;40374;49.480;20.016;2023-04-05T13:16:53;95087.16;;;8.01;39.30
54465;BME280;40374;49.480;20.016;2023-04-05T13:19:20;95075.94;;;8.09;37.12
54465;BME280;40374;49.480;20.016;2023-04-05T13:21:48;95064.84;;;8.48;36.25
54465;BME280;40374;49.480;20.016;2023-04-05T13:24:15;95060.84;;;8.56;37.07
54465;BME280;40374;49.480;20.016;2023-04-05T13:26:43;95079.16;;;8.84;36.58
54465;BME280;40374;49.480;20.016;2023-04-05T13:29:11;95081.56;;;8.86;36.62
54465;BME280;40374;49.480;20.016;2023-04-05T13:31:41;95081.75;;;8.48;36.97
54465;BME280;40374;49.480;20.016;2023-04-05T13:34:08;95086.34;;;8.00;39.15
54465;BME280;40374;49.480;20.016;2023-04-05T13:36:36;95089.00;;;7.52;40.77
54465;BME280;40374;49.480;20.016;2023-04-05T13:39:04;95093.31;;;7.21;40.95
54465;BME280;40374;49.480;20.016;2023-04-05T13:41:32;95093.00;;;6.85;41.01